sensor_id;sensor_type;location;lat;lon;timestamp;pressure;altitude;pressure_sealevel;temperature
71640;BMP280;60912;48.968;10.124;2023-05-03T00:01:36;97392.19;;;8.97
71640;BMP280;60912;48.968;10.124;2023-05-03T00:04:01;97389.19;;;8.95
71640;BMP280;60912;48.968;10.124;2023-05-03T00:06:28;97398.22;;;8.90
71640;BMP280;60912;48.968;10.124;2023-05-03T00:08:53;97392.94;;;8.92
71640;BMP280;60912;48.968;10.124;2023-05-03T00:11:19;97403.44;;;8.93
71640;BMP280;60912;48.968;10.124;2023-05-03T00:13:45;97392.22;;;8.86
71640;BMP280;60912;48.968;10.124;2023-05-03T00:16:10;97396.31;;;8.74
71640;BMP280;60912;48.968;10.124;2023-05-03T00:18:36;97392.31;;;8.75
71640;BMP280;60912;48.968;10.124;2023-05-03T00:21:01;97391.88;;;8.65
71640;BMP280;60912;48.968;10.124;2023-05-03T00:23:27;97391.44;;;8.56
71640;BMP280;60912;48.968;10.124;2023-05-03T00:25:54;97394.72;;;8.48
71640;BMP280;60912;48.968;10.124;2023-05-03T00:28:20;97393.69;;;8.57
71640;BMP280;60912;48.968;10.124;2023-05-03T00:30:46;97388.38;;;8.65
71640;BMP280;60912;48.968;10.124;2023-05-03T00:33:11;97385.09;;;8.72
71640;BMP280;60912;48.968;10.124;2023-05-03T00:35:36;97381.88;;;8.68
71640;BMP280;60912;48.968;10.124;2023-05-03T00:38:02;97379.38;;;8.64
71640;BMP280;60912;48.968;10.124;2023-05-03T00:40:27;97381.63;;;8.66
71640;BMP280;60912;48.968;10.124;2023-05-03T00:42:52;97378.63;;;8.64
71640;BMP280;60912;48.968;10.124;2023-05-03T00:45:18;97389.47;;;8.50
71640;BMP280;60912;48.968;10.124;2023-05-03T00:47:43;97384.25;;;8.47
71640;BMP280;60912;48.968;10.124;2023-05-03T00:50:09;97391.31;;;8.31
71640;BMP280;60912;48.968;10.124;2023-05-03T00:52:39;97388.38;;;8.18
71640;BMP280;60912;48.968;10.124;2023-05-03T00:55:06;97381.69;;;8.08
71640;BMP280;60912;48.968;10.124;2023-05-03T00:57:31;97380.19;;;8.07
71640;BMP280;60912;48.968;10.124;2023-05-03T00:59:57;97383.63;;;8.19
71640;BMP280;60912;48.968;10.124;2023-05-03T01:02:23;97381.63;;;8.19
71640;BMP280;60912;48.968;10.124;2023-05-03T01:04:49;97386.38;;;8.19
71640;BMP280;60912;48.968;10.124;2023-05-03T01:12:47;97376.69;;;8.01
71640;BMP280;60912;48.968;10.124;2023-05-03T01:17:57;97373.47;;;7.91
71640;BMP280;60912;48.968;10.124;2023-05-03T01:20:25;97374.00;;;7.79
71640;BMP280;60912;48.968;10.124;2023-05-03T01:25:24;97374.81;;;7.62
71640;BMP280;60912;48.968;10.124;2023-05-03T01:27:51;97368.59;;;7.51
71640;BMP280;60912;48.968;10.124;2023-05-03T01:30:16;97365.59;;;7.49
71640;BMP280;60912;48.968;10.124;2023-05-03T01:37:58;97364.81;;;7.59
71640;BMP280;60912;48.968;10.124;2023-05-03T01:40:25;97368.59;;;7.45
71640;BMP280;60912;48.968;10.124;2023-05-03T01:42:53;97365.84;;;7.45
71640;BMP280;60912;48.968;10.124;2023-05-03T01:45:19;97366.84;;;7.53
71640;BMP280;60912;48.968;10.124;2023-05-03T01:47:45;97370.81;;;7.63
71640;BMP280;60912;48.968;10.124;2023-05-03T01:50:10;97366.31;;;7.66
71640;BMP280;60912;48.968;10.124;2023-05-03T01:52:36;97362.84;;;7.65
71640;BMP280;60912;48.968;10.124;2023-05-03T01:55:02;97363.09;;;7.56
71640;BMP280;60912;48.968;10.124;2023-05-03T01:57:28;97360.38;;;7.45
71640;BMP280;60912;48.968;10.124;2023-05-03T01:59:53;97363.13;;;7.28
71640;BMP280;60912;48.968;10.124;2023-05-03T02:02:18;97358.13;;;7.33
71640;BMP280;60912;48.968;10.124;2023-05-03T02:04:43;97362.88;;;7.32
71640;BMP280;60912;48.968;10.124;2023-05-03T02:07:09;97364.38;;;7.33
71640;BMP280;60912;48.968;10.124;2023-05-03T02:09:34;97355.63;;;7.23
71640;BMP280;60912;48.968;10.124;2023-05-03T02:12:00;97352.19;;;7.17
71640;BMP280;60912;48.968;10.124;2023-05-03T02:14:25;97358.41;;;7.18
71640;BMP280;60912;48.968;10.124;2023-05-03T02:16:53;97360.13;;;7.10
71640;BMP280;60912;48.968;10.124;2023-05-03T02:19:20;97360.88;;;7.10
71640;BMP280;60912;48.968;10.124;2023-05-03T02:21:45;97366.38;;;7.05
71640;BMP280;60912;48.968;10.124;2023-05-03T02:24:10;97370.13;;;7.07
71640;BMP280;60912;48.968;10.124;2023-05-03T02:26:36;97362.63;;;7.08
71640;BMP280;60912;48.968;10.124;2023-05-03T02:29:01;97362.63;;;7.02
71640;BMP280;60912;48.968;10.124;2023-05-03T02:31:27;97361.13;;;7.01
71640;BMP280;60912;48.968;10.124;2023-05-03T02:33:52;97368.34;;;6.99
71640;BMP280;60912;48.968;10.124;2023-05-03T02:36:19;97373.81;;;6.99
71640;BMP280;60912;48.968;10.124;2023-05-03T02:38:44;97367.13;;;6.94
71640;BMP280;60912;48.968;10.124;2023-05-03T02:41:10;97373.31;;;6.89
71640;BMP280;60912;48.968;10.124;2023-05-03T02:43:35;97365.88;;;6.95
71640;BMP280;60912;48.968;10.124;2023-05-03T02:46:01;97368.88;;;7.03
71640;BMP280;60912;48.968;10.124;2023-05-03T02:48:26;97367.09;;;7.00
71640;BMP280;60912;48.968;10.124;2023-05-03T02:50:51;97359.41;;;6.93
71640;BMP280;60912;48.968;10.124;2023-05-03T02:53:19;97365.63;;;6.93
71640;BMP280;60912;48.968;10.124;2023-05-03T02:55:44;97368.13;;;6.91
71640;BMP280;60912;48.968;10.124;2023-05-03T02:58:10;97369.84;;;7.00
71640;BMP280;60912;48.968;10.124;2023-05-03T03:00:36;97368.88;;;7.03
71640;BMP280;60912;48.968;10.124;2023-05-03T03:03:01;97366.63;;;6.90
71640;BMP280;60912;48.968;10.124;2023-05-03T03:05:26;97367.81;;;6.72
71640;BMP280;60912;48.968;10.124;2023-05-03T03:07:52;97368.56;;;6.56
71640;BMP280;60912;48.968;10.124;2023-05-03T03:10:17;97373.25;;;6.50
71640;BMP280;60912;48.968;10.124;2023-05-03T03:12:42;97365.03;;;6.50
71640;BMP280;60912;48.968;10.124;2023-05-03T03:15:08;97364.50;;;6.46
71640;BMP280;60912;48.968;10.124;2023-05-03T03:17:34;97359.78;;;6.41
71640;BMP280;60912;48.968;10.124;2023-05-03T03:20:06;97361.50;;;6.38
71640;BMP280;60912;48.968;10.124;2023-05-03T03:22:35;97359.28;;;6.48
71640;BMP280;60912;48.968;10.124;2023-05-03T03:25:01;97372.53;;;6.61
71640;BMP280;60912;48.968;10.124;2023-05-03T03:27:26;97364.78;;;6.59
71640;BMP280;60912;48.968;10.124;2023-05-03T03:29:52;97364.81;;;6.54
71640;BMP280;60912;48.968;10.124;2023-05-03T03:32:17;97367.78;;;6.61
71640;BMP280;60912;48.968;10.124;2023-05-03T03:34:42;97355.59;;;6.62
71640;BMP280;60912;48.968;10.124;2023-05-03T03:37:08;97360.31;;;6.62
71640;BMP280;60912;48.968;10.124;2023-05-03T03:39:33;97366.06;;;6.64
71640;BMP280;60912;48.968;10.124;2023-05-03T03:41:58;97365.59;;;6.76
71640;BMP280;60912;48.968;10.124;2023-05-03T03:44:24;97367.56;;;6.76
71640;BMP280;60912;48.968;10.124;2023-05-03T03:46:49;97366.31;;;6.71
71640;BMP280;60912;48.968;10.124;2023-05-03T03:49:15;97360.06;;;6.71
71640;BMP280;60912;48.968;10.124;2023-05-03T03:51:40;97369.50;;;6.59
71640;BMP280;60912;48.968;10.124;2023-05-03T03:54:05;97375.75;;;6.59
71640;BMP280;60912;48.968;10.124;2023-05-03T03:56:31;97375.75;;;6.59
71640;BMP280;60912;48.968;10.124;2023-05-03T03:58:56;97378.00;;;6.55
71640;BMP280;60912;48.968;10.124;2023-05-03T04:01:21;97377.25;;;6.60
71640;BMP280;60912;48.968;10.124;2023-05-03T04:03:47;97380.25;;;6.62
71640;BMP280;60912;48.968;10.124;2023-05-03T04:06:12;97390.72;;;6.64
71640;BMP280;60912;48.968;10.124;2023-05-03T04:08:38;97389.50;;;6.70
71640;BMP280;60912;48.968;10.124;2023-05-03T04:11:08;97390.97;;;6.71
71640;BMP280;60912;48.968;10.124;2023-05-03T04:13:35;97387.53;;;6.87
71640;BMP280;60912;48.968;10.124;2023-05-03T04:16:00;97376.59;;;6.93
71640;BMP280;60912;48.968;10.124;2023-05-03T04:18:25;97378.84;;;7.06
71640;BMP280;60912;48.968;10.124;2023-05-03T04:20:51;97391.28;;;7.23
71640;BMP280;60912;48.968;10.124;2023-05-03T04:23:16;97398.03;;;7.39
71640;BMP280;60912;48.968;10.124;2023-05-03T04:25:42;97399.19;;;7.94
71640;BMP280;60912;48.968;10.124;2023-05-03T04:28:11;97394.50;;;8.46
71640;BMP280;60912;48.968;10.124;2023-05-03T04:30:36;97394.94;;;8.91
71640;BMP280;60912;48.968;10.124;2023-05-03T04:33:04;97391.59;;;9.64
71640;BMP280;60912;48.968;10.124;2023-05-03T04:35:29;97405.63;;;10.65
71640;BMP280;60912;48.968;10.124;2023-05-03T04:37:55;97401.84;;;11.97
71640;BMP280;60912;48.968;10.124;2023-05-03T04:40:21;97405.88;;;13.11
71640;BMP280;60912;48.968;10.124;2023-05-03T04:42:47;97402.75;;;14.00
71640;BMP280;60912;48.968;10.124;2023-05-03T04:45:13;97412.19;;;14.78
71640;BMP280;60912;48.968;10.124;2023-05-03T04:47:39;97406.31;;;15.12
71640;BMP280;60912;48.968;10.124;2023-05-03T04:50:05;97411.16;;;15.82
71640;BMP280;60912;48.968;10.124;2023-05-03T04:52:33;97406.09;;;17.17
71640;BMP280;60912;48.968;10.124;2023-05-03T04:54:59;97404.81;;;18.13
71640;BMP280;60912;48.968;10.124;2023-05-03T04:57:24;97414.19;;;17.82
71640;BMP280;60912;48.968;10.124;2023-05-03T04:59:50;97422.75;;;18.74
71640;BMP280;60912;48.968;10.124;2023-05-03T05:02:15;97417.47;;;19.91
71640;BMP280;60912;48.968;10.124;2023-05-03T05:04:40;97419.13;;;20.74
71640;BMP280;60912;48.968;10.124;2023-05-03T05:07:06;97418.66;;;21.63
71640;BMP280;60912;48.968;10.124;2023-05-03T05:09:32;97422.72;;;21.60
71640;BMP280;60912;48.968;10.124;2023-05-03T05:11:57;97425.81;;;22.20
71640;BMP280;60912;48.968;10.124;2023-05-03T05:14:25;97427.13;;;22.88
71640;BMP280;60912;48.968;10.124;2023-05-03T05:16:51;97433.38;;;23.47
71640;BMP280;60912;48.968;10.124;2023-05-03T05:19:17;97432.84;;;23.14
71640;BMP280;60912;48.968;10.124;2023-05-03T05:21:43;97432.91;;;24.14
71640;BMP280;60912;48.968;10.124;2023-05-03T05:24:08;97428.34;;;24.75
71640;BMP280;60912;48.968;10.124;2023-05-03T05:26:34;97427.63;;;24.48
71640;BMP280;60912;48.968;10.124;2023-05-03T05:28:59;97432.13;;;25.36
71640;BMP280;60912;48.968;10.124;2023-05-03T05:31:25;97431.72;;;25.87
71640;BMP280;60912;48.968;10.124;2023-05-03T05:33:51;97432.28;;;25.25
71640;BMP280;60912;48.968;10.124;2023-05-03T05:36:16;97435.75;;;24.69
71640;BMP280;60912;48.968;10.124;2023-05-03T05:38:42;97433.91;;;24.60
71640;BMP280;60912;48.968;10.124;2023-05-03T05:41:08;97434.59;;;24.33
71640;BMP280;60912;48.968;10.124;2023-05-03T05:43:34;97443.06;;;22.95
71640;BMP280;60912;48.968;10.124;2023-05-03T05:46:00;97442.06;;;22.79
71640;BMP280;60912;48.968;10.124;2023-05-03T05:48:25;97438.84;;;23.08
71640;BMP280;60912;48.968;10.124;2023-05-03T05:50:51;97427.91;;;22.31
71640;BMP280;60912;48.968;10.124;2023-05-03T05:53:16;97437.41;;;22.26
71640;BMP280;60912;48.968;10.124;2023-05-03T05:55:41;97438.59;;;23.16
71640;BMP280;60912;48.968;10.124;2023-05-03T05:58:07;97444.72;;;22.08
71640;BMP280;60912;48.968;10.124;2023-05-03T06:00:34;97444.38;;;22.36
71640;BMP280;60912;48.968;10.124;2023-05-03T06:02:59;97441.47;;;23.29
71640;BMP280;60912;48.968;10.124;2023-05-03T06:05:25;97442.19;;;22.81
71640;BMP280;60912;48.968;10.124;2023-05-03T06:07:51;97438.38;;;21.11
71640;BMP280;60912;48.968;10.124;2023-05-03T06:10:16;97440.06;;;20.73
71640;BMP280;60912;48.968;10.124;2023-05-03T06:12:44;97444.84;;;20.61
71640;BMP280;60912;48.968;10.124;2023-05-03T06:15:10;97446.72;;;20.68
71640;BMP280;60912;48.968;10.124;2023-05-03T06:17:38;97439.88;;;20.50
71640;BMP280;60912;48.968;10.124;2023-05-03T06:20:09;97447.28;;;20.36
71640;BMP280;60912;48.968;10.124;2023-05-03T06:22:38;97443.34;;;20.30
71640;BMP280;60912;48.968;10.124;2023-05-03T06:25:12;97442.66;;;19.91
71640;BMP280;60912;48.968;10.124;2023-05-03T06:30:49;97439.59;;;18.56
71640;BMP280;60912;48.968;10.124;2023-05-03T06:33:17;97441.66;;;18.56
71640;BMP280;60912;48.968;10.124;2023-05-03T06:39:21;97446.25;;;18.70
71640;BMP280;60912;48.968;10.124;2023-05-03T06:41:58;97446.63;;;17.52
71640;BMP280;60912;48.968;10.124;2023-05-03T06:44:23;97440.03;;;17.23
71640;BMP280;60912;48.968;10.124;2023-05-03T06:47:12;97441.22;;;16.23
71640;BMP280;60912;48.968;10.124;2023-05-03T06:49:50;97450.09;;;16.37
71640;BMP280;60912;48.968;10.124;2023-05-03T06:52:35;97450.03;;;16.44
71640;BMP280;60912;48.968;10.124;2023-05-03T06:55:00;97446.22;;;15.77
71640;BMP280;60912;48.968;10.124;2023-05-03T06:57:46;97450.16;;;15.66
71640;BMP280;60912;48.968;10.124;2023-05-03T07:00:35;97447.53;;;16.24
71640;BMP280;60912;48.968;10.124;2023-05-03T07:03:26;97442.34;;;17.34
71640;BMP280;60912;48.968;10.124;2023-05-03T07:06:27;97445.88;;;16.85
71640;BMP280;60912;48.968;10.124;2023-05-03T07:09:17;97432.47;;;17.16
71640;BMP280;60912;48.968;10.124;2023-05-03T07:14:52;97441.59;;;15.80
71640;BMP280;60912;48.968;10.124;2023-05-03T07:17:29;97433.31;;;15.19
71640;BMP280;60912;48.968;10.124;2023-05-03T07:20:07;97437.03;;;14.99
71640;BMP280;60912;48.968;10.124;2023-05-03T07:22:55;97432.00;;;14.82
71640;BMP280;60912;48.968;10.124;2023-05-03T07:25:24;97425.44;;;14.49
71640;BMP280;60912;48.968;10.124;2023-05-03T07:28:00;97429.09;;;14.29
71640;BMP280;60912;48.968;10.124;2023-05-03T07:30:38;97418.00;;;14.29
71640;BMP280;60912;48.968;10.124;2023-05-03T07:33:12;97423.19;;;14.33
71640;BMP280;60912;48.968;10.124;2023-05-03T07:35:55;97427.84;;;13.94
71640;BMP280;60912;48.968;10.124;2023-05-03T07:38:26;97424.63;;;13.54
71640;BMP280;60912;48.968;10.124;2023-05-03T07:41:02;97416.59;;;13.71
71640;BMP280;60912;48.968;10.124;2023-05-03T07:43:30;97414.91;;;13.97
71640;BMP280;60912;48.968;10.124;2023-05-03T07:46:35;97418.81;;;14.52
71640;BMP280;60912;48.968;10.124;2023-05-03T07:49:26;97424.16;;;14.07
71640;BMP280;60912;48.968;10.124;2023-05-03T07:52:18;97426.16;;;14.35
71640;BMP280;60912;48.968;10.124;2023-05-03T07:54:58;97420.00;;;15.02
71640;BMP280;60912;48.968;10.124;2023-05-03T07:57:27;97410.34;;;15.49
71640;BMP280;60912;48.968;10.124;2023-05-03T08:00:02;97413.88;;;14.96
71640;BMP280;60912;48.968;10.124;2023-05-03T08:02:30;97411.66;;;15.02
71640;BMP280;60912;48.968;10.124;2023-05-03T08:04:55;97402.97;;;14.91
71640;BMP280;60912;48.968;10.124;2023-05-03T08:07:44;97402.84;;;15.74
71640;BMP280;60912;48.968;10.124;2023-05-03T08:10:16;97405.09;;;15.76
71640;BMP280;60912;48.968;10.124;2023-05-03T08:16:54;97412.56;;;15.50
71640;BMP280;60912;48.968;10.124;2023-05-03T08:19:28;97405.88;;;15.61
71640;BMP280;60912;48.968;10.124;2023-05-03T08:21:53;97413.91;;;15.04
71640;BMP280;60912;48.968;10.124;2023-05-03T08:24:27;97409.59;;;15.41
71640;BMP280;60912;48.968;10.124;2023-05-03T08:26:52;97409.53;;;15.79
71640;BMP280;60912;48.968;10.124;2023-05-03T08:29:21;97417.34;;;15.65
71640;BMP280;60912;48.968;10.124;2023-05-03T08:31:47;97419.59;;;15.36
71640;BMP280;60912;48.968;10.124;2023-05-03T08:34:18;97414.81;;;14.91
71640;BMP280;60912;48.968;10.124;2023-05-03T08:36:43;97421.09;;;15.30
71640;BMP280;60912;48.968;10.124;2023-05-03T08:39:16;97412.97;;;15.39
71640;BMP280;60912;48.968;10.124;2023-05-03T08:41:45;97415.88;;;14.81
71640;BMP280;60912;48.968;10.124;2023-05-03T08:44:11;97417.38;;;14.82
71640;BMP280;60912;48.968;10.124;2023-05-03T08:46:44;97417.19;;;15.33
71640;BMP280;60912;48.968;10.124;2023-05-03T08:49:11;97415.91;;;15.18
71640;BMP280;60912;48.968;10.124;2023-05-03T08:51:41;97419.91;;;15.70
71640;BMP280;60912;48.968;10.124;2023-05-03T08:54:10;97420.34;;;15.44
71640;BMP280;60912;48.968;10.124;2023-05-03T08:56:43;97417.75;;;15.39
71640;BMP280;60912;48.968;10.124;2023-05-03T08:59:12;97415.13;;;15.63
71640;BMP280;60912;48.968;10.124;2023-05-03T09:01:44;97424.22;;;15.56
71640;BMP280;60912;48.968;10.124;2023-05-03T09:04:13;97429.22;;;15.35
71640;BMP280;60912;48.968;10.124;2023-05-03T09:06:54;97429.78;;;16.11
71640;BMP280;60912;48.968;10.124;2023-05-03T09:09:54;97429.41;;;16.15
71640;BMP280;60912;48.968;10.124;2023-05-03T09:12:38;97428.25;;;16.26
71640;BMP280;60912;48.968;10.124;2023-05-03T09:15:05;97434.13;;;16.37
71640;BMP280;60912;48.968;10.124;2023-05-03T09:17:31;97428.50;;;16.12
71640;BMP280;60912;48.968;10.124;2023-05-03T09:20:06;97432.09;;;15.90
71640;BMP280;60912;48.968;10.124;2023-05-03T09:22:35;97433.97;;;16.60
71640;BMP280;60912;48.968;10.124;2023-05-03T09:25:04;97424.91;;;17.09
71640;BMP280;60912;48.968;10.124;2023-05-03T09:27:30;97425.22;;;17.55
71640;BMP280;60912;48.968;10.124;2023-05-03T09:29:56;97422.78;;;18.20
71640;BMP280;60912;48.968;10.124;2023-05-03T09:32:23;97422.31;;;18.41
71640;BMP280;60912;48.968;10.124;2023-05-03T09:35:16;97430.56;;;17.60
71640;BMP280;60912;48.968;10.124;2023-05-03T09:37:45;97422.84;;;17.86
71640;BMP280;60912;48.968;10.124;2023-05-03T09:40:11;97428.97;;;17.84
71640;BMP280;60912;48.968;10.124;2023-05-03T09:43:11;97419.94;;;18.10
71640;BMP280;60912;48.968;10.124;2023-05-03T09:45:43;97417.19;;;18.20
71640;BMP280;60912;48.968;10.124;2023-05-03T09:48:08;97422.34;;;18.87
71640;BMP280;60912;48.968;10.124;2023-05-03T09:50:55;97418.81;;;18.50
71640;BMP280;60912;48.968;10.124;2023-05-03T09:53:27;97411.03;;;18.48
71640;BMP280;60912;48.968;10.124;2023-05-03T09:56:13;97415.09;;;18.64
71640;BMP280;60912;48.968;10.124;2023-05-03T09:58:50;97405.84;;;19.08
71640;BMP280;60912;48.968;10.124;2023-05-03T10:01:23;97398.72;;;18.97
71640;BMP280;60912;48.968;10.124;2023-05-03T10:04:01;97414.16;;;18.98
71640;BMP280;60912;48.968;10.124;2023-05-03T10:06:38;97414.56;;;18.49
71640;BMP280;60912;48.968;10.124;2023-05-03T10:12:13;97392.50;;;18.16
71640;BMP280;60912;48.968;10.124;2023-05-03T10:14:51;97400.97;;;18.62
71640;BMP280;60912;48.968;10.124;2023-05-03T10:20:52;97397.84;;;18.49
71640;BMP280;60912;48.968;10.124;2023-05-03T10:23:27;97392.63;;;18.72
71640;BMP280;60912;48.968;10.124;2023-05-03T10:26:16;97391.56;;;19.04
71640;BMP280;60912;48.968;10.124;2023-05-03T10:28:51;97390.56;;;19.47
71640;BMP280;60912;48.968;10.124;2023-05-03T10:31:43;97383.41;;;18.89
71640;BMP280;60912;48.968;10.124;2023-05-03T10:34:40;97378.94;;;18.66
71640;BMP280;60912;48.968;10.124;2023-05-03T10:37:15;97384.63;;;17.79
71640;BMP280;60912;48.968;10.124;2023-05-03T10:40:09;97376.44;;;18.70
71640;BMP280;60912;48.968;10.124;2023-05-03T10:42:41;97375.09;;;19.08
71640;BMP280;60912;48.968;10.124;2023-05-03T10:45:26;97367.88;;;19.24
71640;BMP280;60912;48.968;10.124;2023-05-03T10:50:45;97383.78;;;19.21
71640;BMP280;60912;48.968;10.124;2023-05-03T10:57:17;97374.22;;;19.82
71640;BMP280;60912;48.968;10.124;2023-05-03T10:59:52;97362.16;;;19.41
71640;BMP280;60912;48.968;10.124;2023-05-03T11:03:06;97374.38;;;19.17
71640;BMP280;60912;48.968;10.124;2023-05-03T11:05:49;97367.72;;;19.80
71640;BMP280;60912;48.968;10.124;2023-05-03T11:08:26;97369.53;;;19.56
71640;BMP280;60912;48.968;10.124;2023-05-03T11:13:40;97367.38;;;20.04
71640;BMP280;60912;48.968;10.124;2023-05-03T11:16:13;97368.88;;;19.96
71640;BMP280;60912;48.968;10.124;2023-05-03T11:18:45;97368.38;;;20.49
71640;BMP280;60912;48.968;10.124;2023-05-03T11:21:46;97365.72;;;21.03
71640;BMP280;60912;48.968;10.124;2023-05-03T11:28:23;97353.38;;;20.45
71640;BMP280;60912;48.968;10.124;2023-05-03T11:34:44;97347.41;;;21.45
71640;BMP280;60912;48.968;10.124;2023-05-03T11:37:38;97350.59;;;20.35
71640;BMP280;60912;48.968;10.124;2023-05-03T11:40:23;97351.56;;;20.18
71640;BMP280;60912;48.968;10.124;2023-05-03T11:45:40;97351.72;;;20.51
71640;BMP280;60912;48.968;10.124;2023-05-03T11:48:22;97340.88;;;20.36
71640;BMP280;60912;48.968;10.124;2023-05-03T11:54:06;97344.06;;;19.42
71640;BMP280;60912;48.968;10.124;2023-05-03T11:56:41;97338.47;;;19.42
71640;BMP280;60912;48.968;10.124;2023-05-03T11:59:11;97337.13;;;19.62
71640;BMP280;60912;48.968;10.124;2023-05-03T12:01:40;97331.81;;;20.47
71640;BMP280;60912;48.968;10.124;2023-05-03T12:04:17;97331.88;;;20.68
71640;BMP280;60912;48.968;10.124;2023-05-03T12:06:54;97333.25;;;20.27
71640;BMP280;60912;48.968;10.124;2023-05-03T12:09:50;97335.03;;;19.72
71640;BMP280;60912;48.968;10.124;2023-05-03T12:15:31;97324.44;;;18.75
71640;BMP280;60912;48.968;10.124;2023-05-03T12:18:26;97327.25;;;18.85
71640;BMP280;60912;48.968;10.124;2023-05-03T12:21:08;97331.97;;;19.49
71640;BMP280;60912;48.968;10.124;2023-05-03T12:27:10;97315.94;;;19.50
71640;BMP280;60912;48.968;10.124;2023-05-03T12:29:44;97316.97;;;19.54
71640;BMP280;60912;48.968;10.124;2023-05-03T12:32:09;97319.06;;;19.25
71640;BMP280;60912;48.968;10.124;2023-05-03T12:34:38;97324.91;;;19.00
71640;BMP280;60912;48.968;10.124;2023-05-03T12:37:15;97319.56;;;18.56
71640;BMP280;60912;48.968;10.124;2023-05-03T12:39:43;97308.47;;;18.39
71640;BMP280;60912;48.968;10.124;2023-05-03T12:42:26;97318.41;;;18.33
71640;BMP280;60912;48.968;10.124;2023-05-03T12:44:59;97305.50;;;18.93
71640;BMP280;60912;48.968;10.124;2023-05-03T12:47:27;97302.00;;;19.31
71640;BMP280;60912;48.968;10.124;2023-05-03T12:49:53;97294.00;;;19.46
71640;BMP280;60912;48.968;10.124;2023-05-03T12:52:30;97290.28;;;19.72
71640;BMP280;60912;48.968;10.124;2023-05-03T12:55:32;97284.13;;;19.74
71640;BMP280;60912;48.968;10.124;2023-05-03T13:01:01;97288.34;;;19.85
71640;BMP280;60912;48.968;10.124;2023-05-03T13:10:46;97279.50;;;18.90
71640;BMP280;60912;48.968;10.124;2023-05-03T13:13:32;97279.78;;;19.04
71640;BMP280;60912;48.968;10.124;2023-05-03T13:16:07;97282.13;;;19.46
71640;BMP280;60912;48.968;10.124;2023-05-03T13:18:38;97276.53;;;19.27
71640;BMP280;60912;48.968;10.124;2023-05-03T13:21:15;97283.16;;;19.12
71640;BMP280;60912;48.968;10.124;2023-05-03T13:23:43;97285.22;;;19.02
71640;BMP280;60912;48.968;10.124;2023-05-03T13:26:08;97276.47;;;18.50
71640;BMP280;60912;48.968;10.124;2023-05-03T13:28:34;97278.44;;;18.21
71640;BMP280;60912;48.968;10.124;2023-05-03T13:30:59;97278.88;;;17.90
71640;BMP280;60912;48.968;10.124;2023-05-03T13:33:56;97264.00;;;17.78
71640;BMP280;60912;48.968;10.124;2023-05-03T13:36:27;97263.19;;;17.95
71640;BMP280;60912;48.968;10.124;2023-05-03T13:38:55;97260.00;;;18.54
71640;BMP280;60912;48.968;10.124;2023-05-03T13:41:22;97259.03;;;19.26
71640;BMP280;60912;48.968;10.124;2023-05-03T13:43:47;97251.81;;;19.92
71640;BMP280;60912;48.968;10.124;2023-05-03T13:46:13;97255.09;;;20.19
71640;BMP280;60912;48.968;10.124;2023-05-03T13:48:39;97250.41;;;19.62
71640;BMP280;60912;48.968;10.124;2023-05-03T13:51:08;97248.56;;;19.46
71640;BMP280;60912;48.968;10.124;2023-05-03T13:53:34;97246.84;;;19.71
71640;BMP280;60912;48.968;10.124;2023-05-03T13:56:00;97240.94;;;19.87
71640;BMP280;60912;48.968;10.124;2023-05-03T13:58:25;97234.78;;;19.79
71640;BMP280;60912;48.968;10.124;2023-05-03T14:00:51;97239.56;;;20.28
71640;BMP280;60912;48.968;10.124;2023-05-03T14:03:21;97240.75;;;20.25
71640;BMP280;60912;48.968;10.124;2023-05-03T14:05:52;97232.59;;;20.08
71640;BMP280;60912;48.968;10.124;2023-05-03T14:08:19;97240.28;;;19.98
71640;BMP280;60912;48.968;10.124;2023-05-03T14:10:46;97234.94;;;19.81
71640;BMP280;60912;48.968;10.124;2023-05-03T14:13:12;97238.91;;;19.78
71640;BMP280;60912;48.968;10.124;2023-05-03T14:15:42;97249.81;;;19.73
71640;BMP280;60912;48.968;10.124;2023-05-03T14:18:11;97250.22;;;19.20
71640;BMP280;60912;48.968;10.124;2023-05-03T14:20:42;97248.16;;;19.11
71640;BMP280;60912;48.968;10.124;2023-05-03T14:23:13;97237.22;;;19.53
71640;BMP280;60912;48.968;10.124;2023-05-03T14:26:00;97235.81;;;19.83
71640;BMP280;60912;48.968;10.124;2023-05-03T14:28:26;97235.31;;;19.56
71640;BMP280;60912;48.968;10.124;2023-05-03T14:30:51;97232.81;;;19.91
71640;BMP280;60912;48.968;10.124;2023-05-03T14:33:51;97231.84;;;20.38
71640;BMP280;60912;48.968;10.124;2023-05-03T14:36:19;97221.94;;;20.47
71640;BMP280;60912;48.968;10.124;2023-05-03T14:38:46;97227.78;;;19.58
71640;BMP280;60912;48.968;10.124;2023-05-03T14:41:28;97224.13;;;19.46
71640;BMP280;60912;48.968;10.124;2023-05-03T14:43:59;97222.09;;;19.28
71640;BMP280;60912;48.968;10.124;2023-05-03T14:46:38;97222.53;;;19.43
71640;BMP280;60912;48.968;10.124;2023-05-03T14:49:10;97217.00;;;19.74
71640;BMP280;60912;48.968;10.124;2023-05-03T14:51:41;97214.44;;;19.88
71640;BMP280;60912;48.968;10.124;2023-05-03T14:54:09;97215.66;;;20.06
71640;BMP280;60912;48.968;10.124;2023-05-03T14:56:36;97200.63;;;20.32
71640;BMP280;60912;48.968;10.124;2023-05-03T14:59:07;97214.31;;;20.59
71640;BMP280;60912;48.968;10.124;2023-05-03T15:01:49;97208.59;;;20.26
71640;BMP280;60912;48.968;10.124;2023-05-03T15:04:21;97216.72;;;20.01
71640;BMP280;60912;48.968;10.124;2023-05-03T15:06:49;97213.13;;;19.79
71640;BMP280;60912;48.968;10.124;2023-05-03T15:09:24;97217.56;;;19.72
71640;BMP280;60912;48.968;10.124;2023-05-03T15:11:59;97207.91;;;19.64
71640;BMP280;60912;48.968;10.124;2023-05-03T15:14:31;97203.94;;;19.57
71640;BMP280;60912;48.968;10.124;2023-05-03T15:17:14;97201.81;;;19.27
71640;BMP280;60912;48.968;10.124;2023-05-03T15:19:49;97204.59;;;19.27
71640;BMP280;60912;48.968;10.124;2023-05-03T15:22:34;97201.34;;;19.40
71640;BMP280;60912;48.968;10.124;2023-05-03T15:25:17;97197.25;;;19.22
71640;BMP280;60912;48.968;10.124;2023-05-03T15:30:49;97198.53;;;19.40
71640;BMP280;60912;48.968;10.124;2023-05-03T15:33:19;97197.50;;;19.45
71640;BMP280;60912;48.968;10.124;2023-05-03T15:35:45;97195.44;;;19.36
71640;BMP280;60912;48.968;10.124;2023-05-03T15:38:19;97194.09;;;19.56
71640;BMP280;60912;48.968;10.124;2023-05-03T15:40:54;97191.59;;;19.51